sensor_id;sensor_type;location;lat;lon;timestamp;temperature;humidity
14061;DHT22;7105;43.616;1.434;2023-03-01T00:02:19;2.20;99.90
14061;DHT22;7105;43.616;1.434;2023-03-01T00:04:45;2.30;99.90
14061;DHT22;7105;43.616;1.434;2023-03-01T00:07:11;2.40;99.90
14061;DHT22;7105;43.616;1.434;2023-03-01T00:09:37;2.50;99.90
14061;DHT22;7105;43.616;1.434;2023-03-01T00:12:03;2.50;99.90
14061;DHT22;7105;43.616;1.434;2023-03-01T00:14:29;2.40;99.90
14061;DHT22;7105;43.616;1.434;2023-03-01T00:16:55;2.40;99.90
14061;DHT22;7105;43.616;1.434;2023-03-01T00:19:21;2.40;99.90
14061;DHT22;7105;43.616;1.434;2023-03-01T00:21:48;2.40;99.90
14061;DHT22;7105;43.616;1.434;2023-03-01T00:24:14;2.40;99.90
14061;DHT22;7105;43.616;1.434;2023-03-01T00:26:40;2.40;99.90
14061;DHT22;7105;43.616;1.434;2023-03-01T00:29:06;2.40;99.90
14061;DHT22;7105;43.616;1.434;2023-03-01T00:31:33;2.30;99.90
14061;DHT22;7105;43.616;1.434;2023-03-01T00:34:03;2.30;99.90
14061;DHT22;7105;43.616;1.434;2023-03-01T00:36:32;2.20;99.90
14061;DHT22;7105;43.616;1.434;2023-03-01T00:38:58;2.20;99.90
14061;DHT22;7105;43.616;1.434;2023-03-01T00:41:25;2.20;99.90
14061;DHT22;7105;43.616;1.434;2023-03-01T00:43:54;2.20;99.90
14061;DHT22;7105;43.616;1.434;2023-03-01T00:46:21;2.10;99.90
14061;DHT22;7105;43.616;1.434;2023-03-01T00:48:50;2.00;99.90
14061;DHT22;7105;43.616;1.434;2023-03-01T00:51:25;2.00;99.90
14061;DHT22;7105;43.616;1.434;2023-03-01T00:53:56;1.90;99.90
14061;DHT22;7105;43.616;1.434;2023-03-01T00:56:22;1.90;99.90
14061;DHT22;7105;43.616;1.434;2023-03-01T00:58:48;1.90;99.90
14061;DHT22;7105;43.616;1.434;2023-03-01T01:01:20;1.90;99.90
14061;DHT22;7105;43.616;1.434;2023-03-01T01:03:53;1.80;99.90
14061;DHT22;7105;43.616;1.434;2023-03-01T01:06:23;1.60;99.90
14061;DHT22;7105;43.616;1.434;2023-03-01T01:08:49;1.40;99.90
14061;DHT22;7105;43.616;1.434;2023-03-01T01:11:16;1.50;99.90
14061;DHT22;7105;43.616;1.434;2023-03-01T01:13:43;1.40;99.90
14061;DHT22;7105;43.616;1.434;2023-03-01T01:16:09;1.30;99.90
14061;DHT22;7105;43.616;1.434;2023-03-01T01:18:34;1.40;99.90
14061;DHT22;7105;43.616;1.434;2023-03-01T01:21:06;1.20;99.90
14061;DHT22;7105;43.616;1.434;2023-03-01T01:23:32;1.20;99.90
14061;DHT22;7105;43.616;1.434;2023-03-01T01:26:02;1.20;99.90
14061;DHT22;7105;43.616;1.434;2023-03-01T01:28:29;1.20;99.90
14061;DHT22;7105;43.616;1.434;2023-03-01T01:30:54;1.30;99.90
14061;DHT22;7105;43.616;1.434;2023-03-01T01:33:20;1.30;99.90
14061;DHT22;7105;43.616;1.434;2023-03-01T01:35:45;1.30;99.90
14061;DHT22;7105;43.616;1.434;2023-03-01T01:38:11;1.20;99.90
14061;DHT22;7105;43.616;1.434;2023-03-01T01:40:46;1.00;99.90
14061;DHT22;7105;43.616;1.434;2023-03-01T01:45:48;0.90;99.90
14061;DHT22;7105;43.616;1.434;2023-03-01T01:48:21;1.00;99.90
14061;DHT22;7105;43.616;1.434;2023-03-01T01:50:57;1.10;99.90
14061;DHT22;7105;43.616;1.434;2023-03-01T01:53:25;1.10;99.90
14061;DHT22;7105;43.616;1.434;2023-03-01T01:55:54;0.90;99.90
14061;DHT22;7105;43.616;1.434;2023-03-01T01:58:22;0.80;99.90
14061;DHT22;7105;43.616;1.434;2023-03-01T02:00:49;0.80;99.90
14061;DHT22;7105;43.616;1.434;2023-03-01T02:03:18;0.80;99.90
14061;DHT22;7105;43.616;1.434;2023-03-01T02:05:53;0.70;99.90
14061;DHT22;7105;43.616;1.434;2023-03-01T02:08:27;0.60;99.90
14061;DHT22;7105;43.616;1.434;2023-03-01T02:10:54;0.60;99.90
14061;DHT22;7105;43.616;1.434;2023-03-01T02:13:23;0.60;99.90
14061;DHT22;7105;43.616;1.434;2023-03-01T02:15:49;0.60;99.90
14061;DHT22;7105;43.616;1.434;2023-03-01T02:18:17;0.60;99.90
14061;DHT22;7105;43.616;1.434;2023-03-01T02:23:12;0.60;99.90
14061;DHT22;7105;43.616;1.434;2023-03-01T02:26:11;0.50;99.90
14061;DHT22;7105;43.616;1.434;2023-03-01T02:28:42;0.60;99.90
14061;DHT22;7105;43.616;1.434;2023-03-01T02:31:11;0.60;99.90
14061;DHT22;7105;43.616;1.434;2023-03-01T02:33:57;0.60;99.90
14061;DHT22;7105;43.616;1.434;2023-03-01T02:36:26;0.50;99.90
14061;DHT22;7105;43.616;1.434;2023-03-01T02:38:58;0.50;99.90
14061;DHT22;7105;43.616;1.434;2023-03-01T02:41:26;0.40;99.90
14061;DHT22;7105;43.616;1.434;2023-03-01T02:43:53;0.40;99.90
14061;DHT22;7105;43.616;1.434;2023-03-01T02:46:23;0.40;99.90
14061;DHT22;7105;43.616;1.434;2023-03-01T02:48:54;0.40;99.90
14061;DHT22;7105;43.616;1.434;2023-03-01T02:54:30;0.60;99.90
14061;DHT22;7105;43.616;1.434;2023-03-01T02:56:57;0.70;99.90
14061;DHT22;7105;43.616;1.434;2023-03-01T02:59:29;0.70;99.90
14061;DHT22;7105;43.616;1.434;2023-03-01T03:01:56;0.70;99.90
14061;DHT22;7105;43.616;1.434;2023-03-01T03:04:22;0.70;99.90
14061;DHT22;7105;43.616;1.434;2023-03-01T03:06:50;0.70;99.90
14061;DHT22;7105;43.616;1.434;2023-03-01T03:09:16;0.60;99.90
14061;DHT22;7105;43.616;1.434;2023-03-01T03:11:42;0.50;99.90
14061;DHT22;7105;43.616;1.434;2023-03-01T03:14:09;0.70;99.90
14061;DHT22;7105;43.616;1.434;2023-03-01T03:16:58;0.70;99.90
14061;DHT22;7105;43.616;1.434;2023-03-01T03:19:23;0.70;99.90
14061;DHT22;7105;43.616;1.434;2023-03-01T03:21:49;0.70;99.90
14061;DHT22;7105;43.616;1.434;2023-03-01T03:24:15;0.70;99.90
14061;DHT22;7105;43.616;1.434;2023-03-01T03:26:40;0.60;99.90
14061;DHT22;7105;43.616;1.434;2023-03-01T03:29:06;0.60;99.90
14061;DHT22;7105;43.616;1.434;2023-03-01T03:31:32;0.70;99.90
14061;DHT22;7105;43.616;1.434;2023-03-01T03:33:57;0.70;99.90
14061;DHT22;7105;43.616;1.434;2023-03-01T03:36:24;0.60;99.90
14061;DHT22;7105;43.616;1.434;2023-03-01T03:38:50;0.60;99.90
14061;DHT22;7105;43.616;1.434;2023-03-01T03:41:16;0.50;99.90
14061;DHT22;7105;43.616;1.434;2023-03-01T03:43:42;0.60;99.90
14061;DHT22;7105;43.616;1.434;2023-03-01T03:46:10;0.50;99.90
14061;DHT22;7105;43.616;1.434;2023-03-01T03:48:41;0.50;99.90
14061;DHT22;7105;43.616;1.434;2023-03-01T03:51:14;0.50;99.90
14061;DHT22;7105;43.616;1.434;2023-03-01T03:53:40;0.60;99.90
14061;DHT22;7105;43.616;1.434;2023-03-01T03:56:06;0.60;99.90
14061;DHT22;7105;43.616;1.434;2023-03-01T03:58:32;0.50;99.90
14061;DHT22;7105;43.616;1.434;2023-03-01T04:00:58;0.50;99.90
14061;DHT22;7105;43.616;1.434;2023-03-01T04:03:29;0.60;99.90
14061;DHT22;7105;43.616;1.434;2023-03-01T04:06:00;0.60;99.90
14061;DHT22;7105;43.616;1.434;2023-03-01T04:08:27;0.60;99.90
14061;DHT22;7105;43.616;1.434;2023-03-01T04:10:58;0.50;99.90
14061;DHT22;7105;43.616;1.434;2023-03-01T04:13:24;0.50;99.90
14061;DHT22;7105;43.616;1.434;2023-03-01T04:15:54;0.40;99.90
14061;DHT22;7105;43.616;1.434;2023-03-01T04:18:22;0.40;99.90
14061;DHT22;7105;43.616;1.434;2023-03-01T04:20:48;0.30;99.90
14061;DHT22;7105;43.616;1.434;2023-03-01T04:23:16;0.40;99.90
14061;DHT22;7105;43.616;1.434;2023-03-01T04:25:49;0.40;99.90
14061;DHT22;7105;43.616;1.434;2023-03-01T04:28:23;0.40;99.90
14061;DHT22;7105;43.616;1.434;2023-03-01T04:30:56;0.40;99.90
14061;DHT22;7105;43.616;1.434;2023-03-01T04:33:23;0.50;99.90
14061;DHT22;7105;43.616;1.434;2023-03-01T04:35:49;0.40;99.90
14061;DHT22;7105;43.616;1.434;2023-03-01T04:38:16;0.40;99.90
14061;DHT22;7105;43.616;1.434;2023-03-01T04:40:42;0.40;99.90
14061;DHT22;7105;43.616;1.434;2023-03-01T04:43:09;0.30;99.90
14061;DHT22;7105;43.616;1.434;2023-03-01T04:45:36;0.30;99.90
14061;DHT22;7105;43.616;1.434;2023-03-01T04:48:02;0.30;99.90
14061;DHT22;7105;43.616;1.434;2023-03-01T04:50:28;0.30;99.90
14061;DHT22;7105;43.616;1.434;2023-03-01T04:52:55;0.20;99.90
14061;DHT22;7105;43.616;1.434;2023-03-01T04:55:27;0.20;99.90
14061;DHT22;7105;43.616;1.434;2023-03-01T04:57:53;0.10;99.90
14061;DHT22;7105;43.616;1.434;2023-03-01T05:00:19;0.20;99.90
14061;DHT22;7105;43.616;1.434;2023-03-01T05:02:59;0.20;99.90
14061;DHT22;7105;43.616;1.434;2023-03-01T05:05:31;0.20;99.90
14061;DHT22;7105;43.616;1.434;2023-03-01T05:08:01;0.20;99.90
14061;DHT22;7105;43.616;1.434;2023-03-01T05:10:29;0.20;99.90
14061;DHT22;7105;43.616;1.434;2023-03-01T05:12:57;0.10;99.90
14061;DHT22;7105;43.616;1.434;2023-03-01T05:15:23;0.20;99.90
14061;DHT22;7105;43.616;1.434;2023-03-01T05:17:54;0.10;99.90
14061;DHT22;7105;43.616;1.434;2023-03-01T05:20:20;0.10;99.90
14061;DHT22;7105;43.616;1.434;2023-03-01T05:22:50;0.00;99.90
14061;DHT22;7105;43.616;1.434;2023-03-01T05:25:16;0.00;99.90
14061;DHT22;7105;43.616;1.434;2023-03-01T05:27:42;0.10;99.90
14061;DHT22;7105;43.616;1.434;2023-03-01T05:30:08;0.10;99.90
14061;DHT22;7105;43.616;1.434;2023-03-01T05:32:48;0.00;99.90
14061;DHT22;7105;43.616;1.434;2023-03-01T05:35:17;0.10;99.90
14061;DHT22;7105;43.616;1.434;2023-03-01T05:37:44;0.10;99.90
14061;DHT22;7105;43.616;1.434;2023-03-01T05:40:12;0.00;99.90
14061;DHT22;7105;43.616;1.434;2023-03-01T05:42:55;0.00;99.90
14061;DHT22;7105;43.616;1.434;2023-03-01T05:45:23;0.00;99.90
14061;DHT22;7105;43.616;1.434;2023-03-01T05:47:49;0.00;99.90
14061;DHT22;7105;43.616;1.434;2023-03-01T05:50:21;0.00;99.90
14061;DHT22;7105;43.616;1.434;2023-03-01T05:52:54;0.00;99.90
14061;DHT22;7105;43.616;1.434;2023-03-01T05:55:21;0.00;99.90
14061;DHT22;7105;43.616;1.434;2023-03-01T05:57:47;-0.10;99.90
14061;DHT22;7105;43.616;1.434;2023-03-01T06:00:15;-0.10;99.90
14061;DHT22;7105;43.616;1.434;2023-03-01T06:02:41;-0.10;99.90
14061;DHT22;7105;43.616;1.434;2023-03-01T06:05:09;-0.10;99.90
14061;DHT22;7105;43.616;1.434;2023-03-01T06:07:36;-0.10;99.90
14061;DHT22;7105;43.616;1.434;2023-03-01T06:10:03;-0.10;99.90
14061;DHT22;7105;43.616;1.434;2023-03-01T06:12:35;-0.20;99.90
14061;DHT22;7105;43.616;1.434;2023-03-01T06:15:02;-0.20;99.90
14061;DHT22;7105;43.616;1.434;2023-03-01T06:17:32;-0.10;99.90
14061;DHT22;7105;43.616;1.434;2023-03-01T06:22:34;-0.10;99.90
14061;DHT22;7105;43.616;1.434;2023-03-01T06:25:00;-0.20;99.90
14061;DHT22;7105;43.616;1.434;2023-03-01T06:27:26;-0.10;99.90
14061;DHT22;7105;43.616;1.434;2023-03-01T06:29:51;-0.20;99.90
14061;DHT22;7105;43.616;1.434;2023-03-01T06:32:17;-0.20;99.90
14061;DHT22;7105;43.616;1.434;2023-03-01T06:34:43;-0.10;99.90
14061;DHT22;7105;43.616;1.434;2023-03-01T06:37:09;0.00;99.90
14061;DHT22;7105;43.616;1.434;2023-03-01T06:39:37;-0.10;99.90
14061;DHT22;7105;43.616;1.434;2023-03-01T06:42:03;-0.20;99.90
14061;DHT22;7105;43.616;1.434;2023-03-01T06:44:29;-0.20;99.90
14061;DHT22;7105;43.616;1.434;2023-03-01T06:46:55;-0.10;99.90
14061;DHT22;7105;43.616;1.434;2023-03-01T06:49:20;0.00;99.90
14061;DHT22;7105;43.616;1.434;2023-03-01T06:51:46;0.00;99.90
14061;DHT22;7105;43.616;1.434;2023-03-01T06:54:12;0.00;99.90
14061;DHT22;7105;43.616;1.434;2023-03-01T06:56:38;0.00;99.90
14061;DHT22;7105;43.616;1.434;2023-03-01T06:59:04;-0.10;99.90
14061;DHT22;7105;43.616;1.434;2023-03-01T07:01:30;0.10;99.90
14061;DHT22;7105;43.616;1.434;2023-03-01T07:03:56;0.10;99.90
14061;DHT22;7105;43.616;1.434;2023-03-01T07:06:22;0.20;99.90
14061;DHT22;7105;43.616;1.434;2023-03-01T07:08:48;0.20;99.90
14061;DHT22;7105;43.616;1.434;2023-03-01T07:11:14;0.20;99.90
14061;DHT22;7105;43.616;1.434;2023-03-01T07:13:40;0.20;99.90
14061;DHT22;7105;43.616;1.434;2023-03-01T07:16:06;0.20;99.90
14061;DHT22;7105;43.616;1.434;2023-03-01T07:18:31;0.20;99.90
14061;DHT22;7105;43.616;1.434;2023-03-01T07:20:57;0.20;99.90
14061;DHT22;7105;43.616;1.434;2023-03-01T07:23:23;0.40;99.90
14061;DHT22;7105;43.616;1.434;2023-03-01T07:25:53;0.50;99.90
14061;DHT22;7105;43.616;1.434;2023-03-01T07:28:19;0.50;99.90
14061;DHT22;7105;43.616;1.434;2023-03-01T07:30:44;0.60;99.90
14061;DHT22;7105;43.616;1.434;2023-03-01T07:33:10;0.50;99.90
14061;DHT22;7105;43.616;1.434;2023-03-01T07:35:36;0.50;99.90
14061;DHT22;7105;43.616;1.434;2023-03-01T07:38:02;0.60;99.90
14061;DHT22;7105;43.616;1.434;2023-03-01T07:40:27;0.60;99.90
14061;DHT22;7105;43.616;1.434;2023-03-01T07:42:57;0.80;99.90
14061;DHT22;7105;43.616;1.434;2023-03-01T07:45:24;1.10;99.90
14061;DHT22;7105;43.616;1.434;2023-03-01T07:47:51;1.20;99.90
14061;DHT22;7105;43.616;1.434;2023-03-01T07:50:19;1.20;99.90
14061;DHT22;7105;43.616;1.434;2023-03-01T07:52:46;1.20;99.90
14061;DHT22;7105;43.616;1.434;2023-03-01T07:55:12;1.10;99.90
14061;DHT22;7105;43.616;1.434;2023-03-01T07:57:38;1.10;99.90
14061;DHT22;7105;43.616;1.434;2023-03-01T08:00:05;1.40;99.90
14061;DHT22;7105;43.616;1.434;2023-03-01T08:02:31;1.90;99.90
14061;DHT22;7105;43.616;1.434;2023-03-01T08:04:57;4.70;99.90
14061;DHT22;7105;43.616;1.434;2023-03-01T08:07:22;9.00;99.90
14061;DHT22;7105;43.616;1.434;2023-03-01T08:09:48;10.70;99.90
14061;DHT22;7105;43.616;1.434;2023-03-01T08:12:14;12.20;99.90
14061;DHT22;7105;43.616;1.434;2023-03-01T08:14:42;11.70;99.90
14061;DHT22;7105;43.616;1.434;2023-03-01T08:17:08;12.40;99.90
14061;DHT22;7105;43.616;1.434;2023-03-01T08:19:33;13.60;99.90
14061;DHT22;7105;43.616;1.434;2023-03-01T08:22:01;14.40;99.90
14061;DHT22;7105;43.616;1.434;2023-03-01T08:24:27;14.30;99.90
14061;DHT22;7105;43.616;1.434;2023-03-01T08:26:53;14.50;99.90
14061;DHT22;7105;43.616;1.434;2023-03-01T08:29:18;15.40;99.90
14061;DHT22;7105;43.616;1.434;2023-03-01T08:31:44;15.40;99.90
14061;DHT22;7105;43.616;1.434;2023-03-01T08:34:15;13.30;99.90
14061;DHT22;7105;43.616;1.434;2023-03-01T08:36:43;14.00;99.90
14061;DHT22;7105;43.616;1.434;2023-03-01T08:39:12;15.30;99.90
14061;DHT22;7105;43.616;1.434;2023-03-01T08:41:38;15.90;99.90
14061;DHT22;7105;43.616;1.434;2023-03-01T08:44:05;14.70;99.90
14061;DHT22;7105;43.616;1.434;2023-03-01T08:46:36;15.50;99.90
14061;DHT22;7105;43.616;1.434;2023-03-01T08:49:12;15.00;99.60
14061;DHT22;7105;43.616;1.434;2023-03-01T08:51:40;13.40;99.90
14061;DHT22;7105;43.616;1.434;2023-03-01T08:54:09;14.80;99.50
14061;DHT22;7105;43.616;1.434;2023-03-01T08:56:36;16.40;98.50
14061;DHT22;7105;43.616;1.434;2023-03-01T08:59:02;14.60;99.30
14061;DHT22;7105;43.616;1.434;2023-03-01T09:01:28;14.80;99.70
14061;DHT22;7105;43.616;1.434;2023-03-01T09:03:53;14.70;99.20
14061;DHT22;7105;43.616;1.434;2023-03-01T09:06:19;12.80;99.90
14061;DHT22;7105;43.616;1.434;2023-03-01T09:08:47;13.60;99.60
14061;DHT22;7105;43.616;1.434;2023-03-01T09:11:15;15.10;98.40
14061;DHT22;7105;43.616;1.434;2023-03-01T09:13:42;15.70;98.00
14061;DHT22;7105;43.616;1.434;2023-03-01T09:16:09;15.60;96.90
14061;DHT22;7105;43.616;1.434;2023-03-01T09:18:35;15.70;96.60
14061;DHT22;7105;43.616;1.434;2023-03-01T09:21:06;15.20;97.00
14061;DHT22;7105;43.616;1.434;2023-03-01T09:23:37;15.20;96.50
14061;DHT22;7105;43.616;1.434;2023-03-01T09:26:08;16.10;95.60
14061;DHT22;7105;43.616;1.434;2023-03-01T09:28:35;15.90;94.80
14061;DHT22;7105;43.616;1.434;2023-03-01T09:31:02;16.00;94.80
14061;DHT22;7105;43.616;1.434;2023-03-01T09:33:29;14.00;95.70
14061;DHT22;7105;43.616;1.434;2023-03-01T09:36:04;9.20;97.80
14061;DHT22;7105;43.616;1.434;2023-03-01T09:38:31;7.50;99.90
14061;DHT22;7105;43.616;1.434;2023-03-01T09:40:56;6.40;99.90
14061;DHT22;7105;43.616;1.434;2023-03-01T09:43:41;5.80;99.90
14061;DHT22;7105;43.616;1.434;2023-03-01T09:46:10;6.40;99.90
14061;DHT22;7105;43.616;1.434;2023-03-01T09:48:50;5.50;99.90
14061;DHT22;7105;43.616;1.434;2023-03-01T09:51:19;5.70;99.90
14061;DHT22;7105;43.616;1.434;2023-03-01T09:53:47;5.70;99.90
14061;DHT22;7105;43.616;1.434;2023-03-01T09:56:19;5.40;99.90
14061;DHT22;7105;43.616;1.434;2023-03-01T10:01:35;5.40;99.90
14061;DHT22;7105;43.616;1.434;2023-03-01T10:06:35;5.10;99.90
14061;DHT22;7105;43.616;1.434;2023-03-01T10:09:07;4.90;99.90
14061;DHT22;7105;43.616;1.434;2023-03-01T10:11:43;4.90;99.90
14061;DHT22;7105;43.616;1.434;2023-03-01T10:16:58;5.00;99.90
14061;DHT22;7105;43.616;1.434;2023-03-01T10:19:39;4.80;99.90
14061;DHT22;7105;43.616;1.434;2023-03-01T10:22:27;4.50;99.90
14061;DHT22;7105;43.616;1.434;2023-03-01T10:24:56;4.40;99.90
14061;DHT22;7105;43.616;1.434;2023-03-01T10:32:36;4.60;99.90
14061;DHT22;7105;43.616;1.434;2023-03-01T10:35:19;4.70;99.90
14061;DHT22;7105;43.616;1.434;2023-03-01T10:40:30;4.40;99.90
14061;DHT22;7105;43.616;1.434;2023-03-01T10:43:01;4.30;99.90
14061;DHT22;7105;43.616;1.434;2023-03-01T10:45:35;4.20;99.90
14061;DHT22;7105;43.616;1.434;2023-03-01T10:48:14;4.10;99.90
14061;DHT22;7105;43.616;1.434;2023-03-01T10:50:45;4.30;99.90
14061;DHT22;7105;43.616;1.434;2023-03-01T10:53:28;3.90;99.90
14061;DHT22;7105;43.616;1.434;2023-03-01T10:56:21;4.30;99.90
14061;DHT22;7105;43.616;1.434;2023-03-01T10:59:03;4.60;99.90
14061;DHT22;7105;43.616;1.434;2023-03-01T11:01:32;4.80;99.90
14061;DHT22;7105;43.616;1.434;2023-03-01T11:06:32;4.60;99.90
14061;DHT22;7105;43.616;1.434;2023-03-01T11:09:13;4.40;99.90
14061;DHT22;7105;43.616;1.434;2023-03-01T11:11:40;4.60;99.90
14061;DHT22;7105;43.616;1.434;2023-03-01T11:16:48;4.60;99.90
14061;DHT22;7105;43.616;1.434;2023-03-01T11:19:20;5.10;99.90
14061;DHT22;7105;43.616;1.434;2023-03-01T11:24:17;5.30;99.90
14061;DHT22;7105;43.616;1.434;2023-03-01T11:26:51;5.40;99.90
14061;DHT22;7105;43.616;1.434;2023-03-01T11:29:49;4.80;99.90
14061;DHT22;7105;43.616;1.434;2023-03-01T11:32:18;5.00;99.90
14061;DHT22;7105;43.616;1.434;2023-03-01T11:40:27;5.30;99.90
14061;DHT22;7105;43.616;1.434;2023-03-01T11:51:52;5.00;99.90
14061;DHT22;7105;43.616;1.434;2023-03-01T12:00:02;5.50;99.90
14061;DHT22;7105;43.616;1.434;2023-03-01T12:10:56;5.70;99.90
14061;DHT22;7105;43.616;1.434;2023-03-01T12:29:46;5.60;99.90
14061;DHT22;7105;43.616;1.434;2023-03-01T12:38:15;5.90;99.90
14061;DHT22;7105;43.616;1.434;2023-03-01T12:41:11;6.10;99.90
14061;DHT22;7105;43.616;1.434;2023-03-01T12:44:05;6.00;99.90
14061;DHT22;7105;43.616;1.434;2023-03-01T12:49:56;5.90;99.90
14061;DHT22;7105;43.616;1.434;2023-03-01T12:54:57;6.10;99.90
14061;DHT22;7105;43.616;1.434;2023-03-01T12:57:34;6.10;99.90
14061;DHT22;7105;43.616;1.434;2023-03-01T13:02:52;5.90;99.90
14061;DHT22;7105;43.616;1.434;2023-03-01T13:05:29;6.10;99.90
14061;DHT22;7105;43.616;1.434;2023-03-01T13:17:54;6.10;99.90
14061;DHT22;7105;43.616;1.434;2023-03-01T13:23:05;6.40;99.90
14061;DHT22;7105;43.616;1.434;2023-03-01T13:25:32;6.40;99.90
14061;DHT22;7105;43.616;1.434;2023-03-01T13:28:36;6.70;99.90
14061;DHT22;7105;43.616;1.434;2023-03-01T13:31:05;6.70;99.90
14061;DHT22;7105;43.616;1.434;2023-03-01T13:35:59;6.20;99.90
14061;DHT22;7105;43.616;1.434;2023-03-01T13:38:47;6.60;99.90
14061;DHT22;7105;43.616;1.434;2023-03-01T13:41:24;6.60;99.90
14061;DHT22;7105;43.616;1.434;2023-03-01T13:46:47;6.30;99.90
14061;DHT22;7105;43.616;1.434;2023-03-01T13:49:16;6.40;99.90
14061;DHT22;7105;43.616;1.434;2023-03-01T13:51:46;6.30;99.90
14061;DHT22;7105;43.616;1.434;2023-03-01T13:54:14;6.50;99.90
14061;DHT22;7105;43.616;1.434;2023-03-01T13:56:41;6.60;99.90
14061;DHT22;7105;43.616;1.434;2023-03-01T13:59:14;6.20;99.90
14061;DHT22;7105;43.616;1.434;2023-03-01T14:01:41;6.40;99.90
14061;DHT22;7105;43.616;1.434;2023-03-01T14:06:48;6.60;99.90
14061;DHT22;7105;43.616;1.434;2023-03-01T14:09:26;6.70;99.90
14061;DHT22;7105;43.616;1.434;2023-03-01T14:12:39;7.10;99.90
14061;DHT22;7105;43.616;1.434;2023-03-01T14:15:27;6.90;99.90
14061;DHT22;7105;43.616;1.434;2023-03-01T14:18:30;6.50;99.90
14061;DHT22;7105;43.616;1.434;2023-03-01T14:20:59;6.40;99.90
14061;DHT22;7105;43.616;1.434;2023-03-01T14:23:24;6.50;99.90
14061;DHT22;7105;43.616;1.434;2023-03-01T14:25:57;7.00;99.90
14061;DHT22;7105;43.616;1.434;2023-03-01T14:28:31;7.00;99.90
14061;DHT22;7105;43.616;1.434;2023-03-01T14:31:03;6.40;99.90
14061;DHT22;7105;43.616;1.434;2023-03-01T14:33:33;6.60;99.90
14061;DHT22;7105;43.616;1.434;2023-03-01T14:36:00;6.70;99.90
14061;DHT22;7105;43.616;1.434;2023-03-01T14:38:35;6.80;99.90
14061;DHT22;7105;43.616;1.434;2023-03-01T14:43:38;7.10;99.90
14061;DHT22;7105;43.616;1.434;2023-03-01T14:46:06;6.60;99.90
14061;DHT22;7105;43.616;1.434;2023-03-01T14:48:32;6.40;99.90
14061;DHT22;7105;43.616;1.434;2023-03-01T14:50:58;6.40;99.90
14061;DHT22;7105;43.616;1.434;2023-03-01T14:53:28;6.60;99.90
14061;DHT22;7105;43.616;1.434;2023-03-01T14:56:01;6.90;99.90
14061;DHT22;7105;43.616;1.434;2023-03-01T14:58:34;7.00;99.90
14061;DHT22;7105;43.616;1.434;2023-03-01T15:01:03;6.80;99.90
14061;DHT22;7105;43.616;1.434;2023-03-01T15:03:38;6.60;99.90
14061;DHT22;7105;43.616;1.434;2023-03-01T15:06:07;6.50;99.90
14061;DHT22;7105;43.616;1.434;2023-03-01T15:08:34;6.70;99.90
14061;DHT22;7105;43.616;1.434;2023-03-01T15:11:04;7.20;99.90
14061;DHT22;7105;43.616;1.434;2023-03-01T15:13:33;7.10;99.90
14061;DHT22;7105;43.616;1.434;2023-03-01T15:16:06;6.80;99.90
14061;DHT22;7105;43.616;1.434;2023-03-01T15:18:32;6.70;99.90
14061;DHT22;7105;43.616;1.434;2023-03-01T15:21:23;6.70;99.90
14061;DHT22;7105;43.616;1.434;2023-03-01T15:23:55;6.70;99.90
14061;DHT22;7105;43.616;1.434;2023-03-01T15:26:35;6.90;99.90
14061;DHT22;7105;43.616;1.434;2023-03-01T15:29:03;7.00;99.90
14061;DHT22;7105;43.616;1.434;2023-03-01T15:31:35;7.00;99.90
14061;DHT22;7105;43.616;1.434;2023-03-01T15:36:47;6.80;99.90
14061;DHT22;7105;43.616;1.434;2023-03-01T15:39:40;6.70;99.90
14061;DHT22;7105;43.616;1.434;2023-03-01T15:47:41;6.90;99.90
14061;DHT22;7105;43.616;1.434;2023-03-01T15:50:22;6.80;99.90
14061;DHT22;7105;43.616;1.434;2023-03-01T15:52:48;6.80;99.90
14061;DHT22;7105;43.616;1.434;2023-03-01T15:55:34;6.80;99.90
14061;DHT22;7105;43.616;1.434;2023-03-01T15:58:17;7.10;99.90
14061;DHT22;7105;43.616;1.434;2023-03-01T16:00:44;6.80;99.90
14061;DHT22;7105;43.616;1.434;2023-03-01T16:03:11;6.80;99.90
14061;DHT22;7105;43.616;1.434;2023-03-01T16:05:38;6.90;99.90
14061;DHT22;7105;43.616;1.434;2023-03-01T16:08:05;7.10;99.90
14061;DHT22;7105;43.616;1.434;2023-03-01T16:10:32;7.10;99.90
14061;DHT22;7105;43.616;1.434;2023-03-01T16:12:59;7.10;99.90
14061;DHT22;7105;43.616;1.434;2023-03-01T16:15:31;6.70;99.90
14061;DHT22;7105;43.616;1.434;2023-03-01T16:17:57;6.70;99.90
14061;DHT22;7105;43.616;1.434;2023-03-01T16:20:27;6.70;99.90
14061;DHT22;7105;43.616;1.434;2023-03-01T16:22:53;6.70;99.90
14061;DHT22;7105;43.616;1.434;2023-03-01T16:25:20;6.90;99.90
14061;DHT22;7105;43.616;1.434;2023-03-01T16:27:48;6.80;99.90
14061;DHT22;7105;43.616;1.434;2023-03-01T16:30:16;6.60;99.90
14061;DHT22;7105;43.616;1.434;2023-03-01T16:32:43;6.80;99.90
14061;DHT22;7105;43.616;1.434;2023-03-01T16:35:11;6.80;99.90
14061;DHT22;7105;43.616;1.434;2023-03-01T16:37:38;6.80;99.90
14061;DHT22;7105;43.616;1.434;2023-03-01T16:40:05;6.70;99.90
14061;DHT22;7105;43.616;1.434;2023-03-01T16:42:36;6.70;99.90
14061;DHT22;7105;43.616;1.434;2023-03-01T16:45:03;6.80;99.90
14061;DHT22;7105;43.616;1.434;2023-03-01T16:47:29;6.70;99.90
14061;DHT22;7105;43.616;1.434;2023-03-01T16:49:55;6.80;99.90
14061;DHT22;7105;43.616;1.434;2023-03-01T16:52:21;6.70;99.90
14061;DHT22;7105;43.616;1.434;2023-03-01T16:54:47;6.80;99.90
14061;DHT22;7105;43.616;1.434;2023-03-01T16:57:14;6.70;99.90
14061;DHT22;7105;43.616;1.434;2023-03-01T16:59:39;6.60;99.90
14061;DHT22;7105;43.616;1.434;2023-03-01T17:02:08;6.60;99.90
14061;DHT22;7105;43.616;1.434;2023-03-01T17:04:36;6.60;99.90
14061;DHT22;7105;43.616;1.434;2023-03-01T17:07:02;6.60;99.90
14061;DHT22;7105;43.616;1.434;2023-03-01T17:09:28;6.60;99.90
14061;DHT22;7105;43.616;1.434;2023-03-01T17:11:54;6.60;99.90
14061;DHT22;7105;43.616;1.434;2023-03-01T17:14:20;6.50;99.90
14061;DHT22;7105;43.616;1.434;2023-03-01T17:16:46;6.50;99.90
14061;DHT22;7105;43.616;1.434;2023-03-01T17:19:12;6.50;99.90
14061;DHT22;7105;43.616;1.434;2023-03-01T17:21:43;6.40;99.90
14061;DHT22;7105;43.616;1.434;2023-03-01T17:24:09;6.30;99.90
14061;DHT22;7105;43.616;1.434;2023-03-01T17:26:35;6.30;99.90
14061;DHT22;7105;43.616;1.434;2023-03-01T17:29:02;6.30;99.90
14061;DHT22;7105;43.616;1.434;2023-03-01T17:31:29;6.20;99.90
14061;DHT22;7105;43.616;1.434;2023-03-01T17:33:55;6.20;99.90
14061;DHT22;7105;43.616;1.434;2023-03-01T17:36:21;6.20;99.90
14061;DHT22;7105;43.616;1.434;2023-03-01T17:38:47;6.10;99.90
14061;DHT22;7105;43.616;1.434;2023-03-01T17:41:14;6.10;99.90
14061;DHT22;7105;43.616;1.434;2023-03-01T17:43:43;6.00;99.90
14061;DHT22;7105;43.616;1.434;2023-03-01T17:46:09;5.90;99.90
14061;DHT22;7105;43.616;1.434;2023-03-01T17:48:36;5.90;99.90
14061;DHT22;7105;43.616;1.434;2023-03-01T17:51:06;5.90;99.90
14061;DHT22;7105;43.616;1.434;2023-03-01T17:53:32;5.90;99.90
14061;DHT22;7105;43.616;1.434;2023-03-01T17:56:02;5.80;99.90
14061;DHT22;7105;43.616;1.434;2023-03-01T17:58:28;5.80;99.90
14061;DHT22;7105;43.616;1.434;2023-03-01T18:00:54;5.70;99.90
14061;DHT22;7105;43.616;1.434;2023-03-01T18:03:20;5.80;99.90
14061;DHT22;7105;43.616;1.434;2023-03-01T18:05:46;5.70;99.90
14061;DHT22;7105;43.616;1.434;2023-03-01T18:08:12;5.70;99.90
14061;DHT22;7105;43.616;1.434;2023-03-01T18:10:38;5.70;99.90
14061;DHT22;7105;43.616;1.434;2023-03-01T18:13:04;5.60;99.90
14061;DHT22;7105;43.616;1.434;2023-03-01T18:15:31;5.50;99.90
14061;DHT22;7105;43.616;1.434;2023-03-01T18:17:57;5.60;99.90
14061;DHT22;7105;43.616;1.434;2023-03-01T18:20:22;5.60;99.90